createdAt,value
2023-09-28T00:00:46.680Z,15.73
2023-09-28T00:03:14.189Z,17.15
2023-09-28T00:05:41.585Z,11.77
2023-09-28T00:08:09.212Z,14.25
2023-09-28T00:10:36.710Z,11.85
2023-09-28T00:13:04.203Z,15.95
2023-09-28T00:15:32.053Z,13.82
2023-09-28T00:17:59.653Z,15.20
2023-09-28T00:20:29.071Z,14.05
2023-09-28T00:22:58.068Z,13.00
2023-09-28T00:25:25.585Z,15.90
2023-09-28T00:27:59.681Z,11.15
2023-09-28T00:30:28.023Z,12.43
2023-09-28T00:32:57.050Z,13.65
2023-09-28T00:35:27.534Z,12.90
2023-09-28T00:37:55.237Z,13.57
2023-09-28T00:40:43.006Z,13.27
2023-09-28T00:43:11.799Z,14.98
2023-09-28T00:45:39.465Z,13.02
2023-09-28T00:48:10.628Z,12.98
2023-09-28T00:50:38.397Z,10.88
2023-09-28T00:53:08.820Z,14.60
2023-09-28T00:55:41.098Z,13.85
2023-09-28T00:58:11.680Z,14.82
2023-09-28T01:00:41.621Z,13.52
2023-09-28T01:03:10.058Z,15.57
2023-09-28T01:05:40.960Z,15.95
2023-09-28T01:08:16.288Z,13.45
2023-09-28T01:10:44.671Z,13.93
2023-09-28T01:13:14.225Z,14.43
2023-09-28T01:15:43.389Z,14.02
2023-09-28T01:18:18.682Z,12.82
2023-09-28T01:20:53.031Z,11.88
2023-09-28T01:23:21.037Z,13.25
2023-09-28T01:25:50.395Z,14.93
2023-09-28T01:28:18.522Z,12.82
2023-09-28T01:30:47.545Z,17.40
2023-09-28T01:33:15.225Z,12.95
2023-09-28T01:35:42.995Z,12.80
2023-09-28T01:38:25.264Z,12.13
2023-09-28T01:40:52.901Z,12.25
2023-09-28T01:43:20.292Z,17.98
2023-09-28T01:45:48.904Z,14.88
2023-09-28T01:48:16.774Z,13.32
2023-09-28T01:50:44.516Z,11.43
2023-09-28T01:53:11.923Z,13.90
2023-09-28T01:55:39.463Z,10.23
2023-09-28T01:58:08.954Z,12.73
2023-09-28T02:00:37.480Z,13.90
2023-09-28T02:03:06.699Z,14.15
2023-09-28T02:05:34.660Z,14.90
2023-09-28T02:08:08.550Z,13.85
2023-09-28T02:10:36.036Z,12.70
2023-09-28T02:13:05.824Z,13.02
2023-09-28T02:15:33.937Z,12.93
2023-09-28T02:18:01.584Z,17.33
2023-09-28T02:20:31.199Z,14.07
2023-09-28T02:22:59.261Z,14.75
2023-09-28T02:25:27.586Z,15.48
2023-09-28T02:27:55.353Z,13.95
2023-09-28T02:30:25.016Z,14.27
2023-09-28T02:32:54.783Z,15.82
2023-09-28T02:35:22.931Z,18.27
2023-09-28T02:37:52.662Z,14.82
2023-09-28T02:40:21.255Z,11.07
2023-09-28T02:42:51.442Z,16.13
2023-09-28T02:45:19.079Z,14.20
2023-09-28T02:47:48.857Z,14.55
2023-09-28T02:50:20.336Z,15.02
2023-09-28T02:52:48.893Z,12.98
2023-09-28T02:55:19.131Z,14.18
2023-09-28T02:57:48.341Z,14.63
2023-09-28T03:00:21.123Z,15.38
2023-09-28T03:02:49.080Z,15.55
2023-09-28T03:05:22.416Z,16.50
2023-09-28T03:07:50.668Z,14.23
2023-09-28T03:10:20.555Z,15.02
2023-09-28T03:12:48.670Z,18.52
2023-09-28T03:15:17.638Z,13.85
2023-09-28T03:17:47.794Z,23.42
2023-09-28T03:20:16.907Z,19.58
2023-09-28T03:22:46.608Z,16.75
2023-09-28T03:25:18.813Z,17.27
2023-09-28T03:27:49.428Z,22.85
2023-09-28T03:30:17.750Z,26.00
2023-09-28T03:32:48.437Z,20.48
2023-09-28T03:35:17.954Z,16.75
2023-09-28T03:37:46.997Z,16.15
2023-09-28T03:40:15.535Z,14.70
2023-09-28T03:42:48.004Z,17.67
2023-09-28T03:45:21.345Z,19.42
2023-09-28T03:47:53.683Z,21.38
2023-09-28T03:50:22.859Z,15.63
2023-09-28T03:52:51.054Z,16.30
2023-09-28T03:55:23.062Z,14.93
2023-09-28T03:57:51.473Z,19.13
2023-09-28T04:00:19.741Z,13.63
2023-09-28T04:02:52.180Z,17.10
2023-09-28T04:05:22.010Z,18.05
2023-09-28T04:07:51.235Z,14.38
2023-09-28T04:10:22.493Z,15.95
2023-09-28T04:12:51.924Z,14.93
2023-09-28T04:15:23.578Z,19.70
2023-09-28T04:17:51.181Z,17.58
2023-09-28T04:20:18.748Z,15.00
2023-09-28T04:22:46.424Z,14.57
2023-09-28T04:25:16.319Z,17.73
2023-09-28T04:27:43.717Z,18.23
2023-09-28T04:30:11.615Z,15.45
2023-09-28T04:32:39.081Z,15.73
2023-09-28T04:35:07.527Z,13.60
2023-09-28T04:37:35.013Z,16.98
2023-09-28T04:40:02.382Z,17.73
2023-09-28T04:42:29.767Z,16.65
2023-09-28T04:44:57.099Z,15.35
2023-09-28T04:47:24.606Z,27.30
2023-09-28T04:49:52.069Z,17.88
2023-09-28T04:52:19.509Z,22.48
2023-09-28T04:55:08.200Z,19.15
2023-09-28T04:57:35.861Z,21.38
2023-09-28T05:00:07.798Z,23.10
2023-09-28T05:02:35.712Z,18.48
2023-09-28T05:05:07.194Z,16.25
2023-09-28T05:07:34.570Z,20.23
2023-09-28T05:10:01.961Z,18.13
2023-09-28T05:12:29.294Z,17.27
2023-09-28T05:15:07.366Z,17.50
2023-09-28T05:17:34.885Z,24.10
2023-09-28T05:20:02.566Z,15.50
2023-09-28T05:22:30.309Z,13.55
2023-09-28T05:24:57.750Z,18.80
2023-09-28T05:27:25.105Z,15.90
2023-09-28T05:29:52.485Z,14.88
2023-09-28T05:32:19.855Z,18.65
2023-09-28T05:34:48.281Z,32.28
2023-09-28T05:37:15.973Z,24.92
2023-09-28T05:39:57.326Z,21.65
2023-09-28T05:42:26.113Z,17.38
2023-09-28T05:44:53.614Z,16.67
2023-09-28T05:47:21.844Z,23.95
2023-09-28T05:49:50.666Z,31.00
2023-09-28T05:52:19.397Z,20.30
2023-09-28T05:54:47.742Z,29.67
2023-09-28T05:57:15.798Z,23.23
2023-09-28T05:59:43.536Z,27.42
2023-09-28T06:02:12.742Z,15.55
2023-09-28T06:04:40.347Z,20.73
2023-09-28T06:07:07.731Z,21.70
2023-09-28T06:14:09.503Z,20.80
2023-09-28T06:16:37.985Z,19.55
2023-09-28T06:19:05.881Z,20.13
2023-09-28T06:21:33.443Z,18.70
2023-09-28T06:24:01.234Z,34.60
2023-09-28T06:26:41.334Z,22.75
2023-09-28T06:29:10.897Z,22.23
2023-09-28T06:31:39.658Z,17.80
2023-09-28T06:34:32.163Z,17.55
2023-09-28T06:37:06.185Z,20.00
2023-09-28T06:39:33.646Z,23.10
2023-09-28T06:42:20.257Z,20.58
2023-09-28T06:44:53.890Z,17.50
2023-09-28T06:47:21.217Z,18.23
2023-09-28T06:49:51.241Z,18.50
2023-09-28T06:52:19.178Z,15.98
2023-09-28T06:54:46.643Z,19.83
2023-09-28T06:57:14.381Z,13.18
2023-09-28T06:59:41.911Z,13.40
2023-09-28T07:02:10.739Z,13.88
2023-09-28T07:04:37.758Z,14.90
2023-09-28T07:07:05.271Z,13.45
2023-09-28T07:09:43.619Z,11.25
2023-09-28T07:12:18.900Z,11.82
2023-09-28T07:14:46.383Z,11.75
2023-09-28T07:17:13.884Z,11.88
2023-09-28T07:19:41.901Z,11.60
2023-09-28T07:22:09.291Z,12.45
2023-09-28T07:24:37.451Z,12.80
2023-09-28T07:27:05.028Z,9.35
2023-09-28T07:29:32.457Z,10.00
2023-09-28T07:31:59.994Z,10.63
2023-09-28T07:34:28.021Z,11.50
2023-09-28T07:36:56.035Z,13.15
2023-09-28T07:39:24.252Z,10.50
2023-09-28T07:41:52.834Z,12.48
2023-09-28T07:44:20.467Z,10.60
2023-09-28T07:46:48.663Z,8.40
2023-09-28T07:49:16.084Z,7.80
2023-09-28T07:51:43.469Z,11.70
2023-09-28T07:54:10.845Z,10.52
2023-09-28T07:56:38.159Z,9.48
2023-09-28T07:59:05.731Z,7.55
2023-09-28T08:01:38.918Z,11.95
2023-09-28T08:04:07.381Z,13.73
2023-09-28T08:06:34.539Z,11.60
2023-09-28T08:09:03.310Z,10.27
2023-09-28T08:11:31.177Z,10.30
2023-09-28T08:13:58.667Z,6.22
2023-09-28T08:16:25.727Z,6.97
2023-09-28T08:18:53.186Z,6.93
2023-09-28T08:21:20.490Z,5.85
2023-09-28T08:23:47.900Z,6.97
2023-09-28T08:26:16.806Z,6.65
2023-09-28T08:28:44.258Z,11.73
2023-09-28T08:31:12.068Z,11.05
2023-09-28T08:33:39.458Z,7.28
2023-09-28T08:36:10.924Z,6.20
2023-09-28T08:38:38.852Z,7.05
2023-09-28T08:41:09.556Z,6.82
2023-09-28T08:43:44.501Z,8.48
2023-09-28T08:46:14.774Z,11.32
2023-09-28T08:48:48.607Z,9.10
2023-09-28T08:51:17.673Z,7.60
2023-09-28T08:53:49.661Z,7.00
2023-09-28T08:56:17.606Z,7.35
2023-09-28T08:58:46.811Z,8.40
2023-09-28T09:01:14.577Z,8.07
2023-09-28T09:03:45.129Z,6.82
2023-09-28T09:06:13.370Z,7.93
2023-09-28T09:08:47.115Z,8.57
2023-09-28T09:11:17.957Z,8.37
2023-09-28T09:13:58.136Z,6.63
2023-09-28T09:16:28.342Z,9.15
2023-09-28T09:18:57.591Z,6.25
2023-09-28T09:21:28.024Z,6.75
2023-09-28T09:24:11.434Z,9.25
2023-09-28T09:26:50.898Z,6.50
2023-09-28T09:29:18.330Z,5.70
2023-09-28T09:31:48.470Z,8.82
2023-09-28T09:34:20.746Z,10.13
2023-09-28T09:36:59.184Z,6.68
2023-09-28T09:39:31.881Z,8.90
2023-09-28T09:41:59.562Z,10.50
2023-09-28T09:44:28.247Z,8.02
2023-09-28T09:46:57.182Z,8.57
2023-09-28T09:49:25.969Z,8.93
2023-09-28T09:51:55.189Z,8.10
2023-09-28T09:54:23.006Z,7.47
2023-09-28T09:56:52.375Z,5.93
2023-09-28T09:59:22.359Z,7.22
2023-09-28T10:01:51.464Z,5.53
2023-09-28T10:04:20.925Z,8.35
2023-09-28T10:06:53.564Z,6.30
2023-09-28T10:09:22.015Z,6.13
2023-09-28T10:11:51.101Z,6.22
2023-09-28T10:14:22.126Z,8.48
2023-09-28T10:16:54.701Z,10.32
2023-09-28T10:19:26.344Z,7.47
2023-09-28T10:21:57.053Z,6.25
2023-09-28T10:24:32.010Z,9.27
2023-09-28T10:27:12.142Z,5.75
2023-09-28T10:29:41.571Z,11.13
2023-09-28T10:32:28.748Z,6.75
2023-09-28T10:35:21.479Z,6.00
2023-09-28T10:38:16.924Z,5.95
2023-09-28T10:41:08.384Z,8.68
2023-09-28T10:43:40.996Z,7.47
2023-09-28T10:46:09.679Z,6.38
2023-09-28T10:48:47.317Z,10.75
2023-09-28T10:51:19.612Z,5.88
2023-09-28T10:53:47.368Z,6.13
2023-09-28T10:56:14.866Z,6.40
2023-09-28T10:58:43.822Z,6.78
2023-09-28T11:01:11.755Z,5.40
2023-09-28T11:03:40.742Z,5.80
2023-09-28T11:06:10.835Z,8.23
2023-09-28T11:08:39.142Z,6.88
2023-09-28T11:11:06.699Z,7.75
2023-09-28T11:13:35.427Z,7.53
2023-09-28T11:16:03.391Z,5.28
2023-09-28T11:18:32.754Z,7.82
2023-09-28T11:21:01.161Z,6.95
2023-09-28T11:23:29.565Z,8.68
2023-09-28T11:25:58.651Z,8.10
2023-09-28T11:28:27.086Z,7.80
2023-09-28T11:31:12.884Z,5.75
2023-09-28T11:33:41.052Z,6.43
2023-09-28T11:36:15.928Z,8.18
2023-09-28T11:38:57.515Z,8.40
2023-09-28T11:41:25.192Z,6.60
2023-09-28T11:44:00.165Z,7.80
2023-09-28T11:46:29.406Z,4.68
2023-09-28T11:49:17.572Z,5.32
2023-09-28T11:51:45.724Z,7.45
2023-09-28T11:54:14.844Z,6.13
2023-09-28T11:56:43.041Z,4.00
2023-09-28T11:59:17.076Z,7.45
2023-09-28T12:01:53.439Z,7.60
2023-09-28T12:04:21.390Z,5.03
2023-09-28T12:06:49.595Z,6.18
2023-09-28T12:09:20.447Z,4.75
2023-09-28T12:11:51.421Z,5.68
2023-09-28T12:14:26.336Z,7.05
2023-09-28T12:16:55.428Z,5.45
2023-09-28T12:19:23.164Z,5.25
2023-09-28T12:21:52.398Z,5.35
2023-09-28T12:24:19.794Z,9.60
2023-09-28T12:26:49.570Z,6.97
2023-09-28T12:29:19.226Z,5.75
2023-09-28T12:31:46.799Z,5.13
2023-09-28T12:34:15.113Z,6.80
2023-09-28T12:36:42.794Z,5.80
2023-09-28T12:39:12.098Z,6.60
2023-09-28T12:41:39.580Z,8.05
2023-09-28T12:44:07.322Z,6.00
2023-09-28T12:46:35.070Z,4.22
2023-09-28T12:49:02.844Z,5.63
2023-09-28T12:51:30.514Z,6.07
2023-09-28T12:53:58.169Z,4.57
2023-09-28T12:56:25.829Z,5.93
2023-09-28T12:58:53.429Z,6.50
2023-09-28T13:01:23.870Z,5.00
2023-09-28T13:03:54.447Z,7.50
2023-09-28T13:06:22.671Z,5.00
2023-09-28T13:08:54.745Z,4.60
2023-09-28T13:11:23.011Z,5.68
2023-09-28T13:13:50.370Z,6.57
2023-09-28T13:16:22.116Z,4.82
2023-09-28T13:18:50.513Z,8.05
2023-09-28T13:21:17.896Z,5.32
2023-09-28T13:23:46.916Z,5.05
2023-09-28T13:26:15.040Z,5.35
2023-09-28T13:28:42.967Z,4.40
2023-09-28T13:31:11.284Z,8.55
2023-09-28T13:33:40.192Z,5.35
2023-09-28T13:36:08.318Z,6.35
2023-09-28T13:38:35.840Z,4.93
2023-09-28T13:41:13.695Z,6.22
2023-09-28T13:43:45.173Z,5.00
2023-09-28T13:46:12.873Z,6.93
2023-09-28T13:48:40.684Z,4.20
2023-09-28T13:51:08.139Z,7.00
2023-09-28T13:53:35.764Z,7.10
2023-09-28T13:56:04.519Z,6.95
2023-09-28T13:58:32.637Z,7.00
2023-09-28T14:01:00.409Z,5.45
2023-09-28T14:03:28.560Z,4.85
2023-09-28T14:05:58.240Z,6.22
2023-09-28T14:08:26.247Z,6.00
2023-09-28T14:10:53.681Z,5.45
2023-09-28T14:13:22.943Z,5.32
2023-09-28T14:15:50.426Z,5.50
2023-09-28T14:18:18.063Z,7.38
2023-09-28T14:20:45.837Z,5.65
2023-09-28T14:23:13.659Z,4.53
2023-09-28T14:25:42.068Z,5.97
2023-09-28T14:28:09.636Z,5.88
2023-09-28T14:30:37.531Z,10.15
2023-09-28T14:33:05.319Z,6.40
2023-09-28T14:35:32.773Z,5.13
2023-09-28T14:38:00.206Z,6.82
2023-09-28T14:40:28.476Z,6.03
2023-09-28T14:42:56.097Z,5.30
2023-09-28T14:45:26.176Z,6.82
2023-09-28T14:47:53.932Z,5.70
2023-09-28T14:50:22.257Z,5.93
2023-09-28T14:52:49.797Z,5.03
2023-09-28T14:55:17.210Z,6.25
2023-09-28T14:57:44.691Z,4.03
2023-09-28T15:00:59.213Z,5.90
2023-09-28T15:03:26.833Z,6.00
2023-09-28T15:05:54.687Z,6.63
2023-09-28T15:08:22.908Z,5.63
2023-09-28T15:10:50.900Z,5.45
2023-09-28T15:13:18.401Z,6.10
2023-09-28T15:15:48.431Z,5.70
2023-09-28T15:18:15.946Z,5.35
2023-09-28T15:20:44.811Z,5.10
2023-09-28T15:23:14.212Z,4.93
2023-09-28T15:25:41.720Z,6.50
2023-09-28T15:28:09.861Z,6.10
2023-09-28T15:30:37.565Z,10.43
2023-09-28T15:33:05.601Z,6.15
2023-09-28T15:35:33.582Z,7.85
2023-09-28T15:38:01.116Z,5.93
2023-09-28T15:40:38.733Z,7.22
2023-09-28T15:43:07.566Z,5.60
2023-09-28T15:45:35.202Z,7.10
2023-09-28T15:48:03.629Z,6.40
2023-09-28T15:50:31.264Z,5.72
2023-09-28T15:52:58.774Z,6.88
2023-09-28T15:55:26.193Z,9.20
2023-09-28T15:57:53.603Z,6.53
2023-09-28T16:00:36.147Z,5.97
2023-09-28T16:03:06.010Z,4.65
2023-09-28T16:05:33.701Z,6.95
2023-09-28T16:08:01.157Z,6.45
2023-09-28T16:10:28.606Z,6.22
2023-09-28T16:12:55.940Z,6.95
2023-09-28T16:15:23.488Z,8.75
2023-09-28T16:17:53.846Z,7.47
2023-09-28T16:20:21.556Z,7.13
2023-09-28T16:22:49.072Z,3.90
2023-09-28T16:25:19.505Z,5.40
2023-09-28T16:27:47.162Z,6.47
2023-09-28T16:30:14.879Z,5.97
2023-09-28T16:32:42.413Z,4.90
2023-09-28T16:35:10.503Z,5.07
2023-09-28T16:37:38.211Z,7.82
2023-09-28T16:40:06.248Z,7.63
2023-09-28T16:42:33.987Z,5.75
2023-09-28T16:45:02.311Z,6.18
2023-09-28T16:47:29.726Z,5.82
2023-09-28T16:49:57.754Z,5.30
2023-09-28T16:56:21.413Z,8.57
2023-09-28T17:20:52.645Z,7.93
2023-09-28T17:23:20.281Z,5.55
2023-09-28T17:25:48.883Z,5.75
2023-09-28T17:28:16.366Z,6.78
2023-09-28T17:30:47.502Z,5.90
2023-09-28T17:33:15.443Z,6.93
2023-09-28T17:35:43.220Z,10.70
2023-09-28T17:38:10.852Z,7.70
2023-09-28T17:40:39.203Z,6.88
2023-09-28T17:43:06.756Z,6.47
2023-09-28T17:45:34.409Z,7.22
2023-09-28T17:48:02.463Z,5.25
2023-09-28T17:50:30.718Z,8.27
2023-09-28T17:53:32.312Z,6.20
2023-09-28T17:56:14.003Z,7.30
2023-09-28T17:58:55.475Z,7.90
2023-09-28T18:01:48.468Z,6.57
2023-09-28T18:04:24.868Z,6.68
2023-09-28T18:06:53.577Z,6.57
2023-09-28T18:09:47.928Z,7.00
2023-09-28T18:12:15.703Z,7.57
2023-09-28T18:35:27.512Z,10.93
2023-09-28T18:37:56.743Z,6.80
2023-09-28T18:40:32.072Z,8.43
2023-09-28T18:43:56.839Z,11.45
2023-09-28T18:48:03.252Z,7.82
2023-09-28T18:52:17.504Z,8.95
2023-09-28T18:55:39.714Z,8.73
2023-09-28T18:58:10.833Z,12.13
2023-09-28T19:00:49.417Z,8.82
2023-09-28T19:03:25.103Z,9.07
2023-09-28T19:06:23.548Z,10.75
2023-09-28T19:08:51.616Z,9.88
2023-09-28T19:11:19.930Z,8.23
2023-09-28T19:13:48.179Z,9.00
2023-09-28T19:16:30.838Z,9.90
2023-09-28T19:18:59.541Z,11.25
2023-09-28T19:21:27.153Z,11.35
2023-09-28T19:23:55.055Z,11.95
2023-09-28T19:26:23.120Z,9.80
2023-09-28T19:28:50.831Z,10.13
2023-09-28T19:31:18.328Z,10.27
2023-09-28T19:33:45.830Z,12.43
2023-09-28T19:36:13.251Z,11.52
2023-09-28T19:38:40.777Z,11.18
2023-09-28T19:41:08.871Z,12.95
2023-09-28T19:43:36.446Z,10.82
2023-09-28T19:46:04.717Z,11.38
2023-09-28T19:48:32.302Z,12.80
2023-09-28T19:50:59.759Z,13.25
2023-09-28T19:53:27.651Z,10.05
2023-09-28T19:56:00.045Z,10.57
2023-09-28T19:58:27.908Z,10.65
2023-09-28T20:00:55.414Z,10.90
2023-09-28T20:03:22.828Z,12.30
2023-09-28T20:05:50.484Z,9.65
2023-09-28T20:08:17.987Z,9.23
2023-09-28T20:10:46.081Z,10.10
2023-09-28T20:13:13.562Z,10.27
2023-09-28T20:15:41.114Z,10.80
2023-09-28T20:18:08.872Z,11.80
2023-09-28T20:20:36.513Z,11.18
2023-09-28T20:23:04.210Z,10.00
2023-09-28T20:25:31.679Z,10.68
2023-09-28T20:27:59.078Z,9.63
2023-09-28T20:30:26.774Z,14.02
2023-09-28T20:32:54.405Z,10.48
2023-09-28T20:35:21.877Z,11.23
2023-09-28T20:37:49.750Z,11.82
2023-09-28T20:40:17.245Z,10.13
2023-09-28T20:42:45.272Z,13.60
2023-09-28T20:45:13.158Z,11.35
2023-09-28T20:47:40.830Z,10.45
2023-09-28T20:50:10.857Z,11.05
2023-09-28T20:52:38.509Z,9.80
2023-09-28T20:55:06.482Z,12.52
2023-09-28T20:57:34.151Z,12.07
2023-09-28T21:00:08.028Z,9.30
2023-09-28T21:02:37.571Z,12.80
2023-09-28T21:05:06.270Z,11.70
2023-09-28T21:07:41.774Z,10.85
2023-09-28T21:10:12.799Z,13.80
2023-09-28T21:12:40.243Z,12.45
2023-09-28T21:15:09.714Z,13.75
2023-09-28T21:17:39.706Z,13.02
2023-09-28T21:20:14.561Z,11.88
2023-09-28T21:22:42.029Z,10.95
2023-09-28T21:25:09.807Z,13.55
2023-09-28T21:27:37.314Z,11.95
2023-09-28T21:30:05.296Z,13.38
2023-09-28T21:32:32.634Z,11.77
2023-09-28T21:35:00.123Z,13.73
2023-09-28T21:37:27.513Z,13.02
2023-09-28T21:39:54.874Z,12.45
2023-09-28T21:42:22.621Z,11.60
2023-09-28T21:44:54.078Z,12.43
2023-09-28T21:47:21.413Z,11.93
2023-09-28T21:49:48.750Z,14.00
2023-09-28T21:52:16.029Z,14.15
2023-09-28T21:54:43.356Z,10.35
2023-09-28T21:57:11.096Z,13.27
2023-09-28T21:59:38.534Z,15.00
2023-09-28T22:02:06.191Z,12.68
2023-09-28T22:04:34.358Z,13.88
2023-09-28T22:07:02.370Z,15.40
2023-09-28T22:09:29.740Z,10.52
2023-09-28T22:11:58.869Z,9.77
2023-09-28T22:14:26.255Z,12.07
2023-09-28T22:16:53.632Z,12.13
2023-09-28T22:19:21.340Z,12.80
2023-09-28T22:21:48.660Z,14.80
2023-09-28T22:24:16.016Z,14.70
2023-09-28T22:26:43.542Z,12.73
2023-09-28T22:29:11.340Z,13.68
2023-09-28T22:31:39.222Z,11.43
2023-09-28T22:34:06.616Z,15.05
2023-09-28T22:36:33.985Z,11.85
2023-09-28T22:39:01.427Z,12.25
2023-09-28T22:41:28.896Z,15.68
2023-09-28T22:43:56.212Z,14.73
2023-09-28T22:46:23.659Z,13.77
2023-09-28T22:48:57.766Z,12.73
2023-09-28T22:51:25.754Z,11.52
2023-09-28T22:53:53.151Z,14.35
2023-09-28T22:56:20.638Z,12.00
2023-09-28T22:58:48.066Z,13.48
2023-09-28T23:01:15.420Z,12.65
2023-09-28T23:03:42.864Z,12.00
2023-09-28T23:06:10.325Z,14.85
2023-09-28T23:08:37.760Z,14.18
2023-09-28T23:11:06.012Z,12.52
2023-09-28T23:13:36.850Z,13.05
2023-09-28T23:16:06.392Z,13.95
2023-09-28T23:18:34.730Z,11.00
2023-09-28T23:21:02.420Z,12.20
2023-09-28T23:23:30.418Z,12.88
2023-09-28T23:25:57.852Z,12.10
2023-09-28T23:28:26.050Z,13.40
2023-09-28T23:30:56.684Z,13.55
2023-09-28T23:33:25.097Z,13.68
2023-09-28T23:35:54.368Z,13.82
2023-09-28T23:38:21.742Z,15.15
2023-09-28T23:40:49.385Z,15.27
2023-09-28T23:43:16.694Z,11.57
2023-09-28T23:45:45.114Z,15.32
2023-09-28T23:48:12.602Z,14.77
2023-09-28T23:50:40.104Z,15.57
2023-09-28T23:53:10.650Z,12.82
2023-09-28T23:55:38.071Z,13.77
2023-09-28T23:58:06.541Z,11.70
